sensor_id;sensor_type;location;lat;lon;timestamp;P1;durP1;ratioP1;P2;durP2;ratioP2
5555;SDS011;2801;50.972;7.856;2022-10-04T00:01:43;17.10;;;8.07;;
5555;SDS011;2801;50.972;7.856;2022-10-04T00:04:30;20.40;;;8.43;;
5555;SDS011;2801;50.972;7.856;2022-10-04T00:09:49;14.23;;;7.53;;
5555;SDS011;2801;50.972;7.856;2022-10-04T00:12:26;13.63;;;8.00;;
5555;SDS011;2801;50.972;7.856;2022-10-04T00:15:23;21.77;;;8.67;;
5555;SDS011;2801;50.972;7.856;2022-10-04T00:18:18;16.97;;;7.93;;
5555;SDS011;2801;50.972;7.856;2022-10-04T00:21:04;19.63;;;8.03;;
5555;SDS011;2801;50.972;7.856;2022-10-04T00:26:03;18.73;;;8.10;;
5555;SDS011;2801;50.972;7.856;2022-10-04T00:29:06;17.80;;;8.70;;
5555;SDS011;2801;50.972;7.856;2022-10-04T00:37:14;15.67;;;7.93;;
5555;SDS011;2801;50.972;7.856;2022-10-04T00:40:09;16.17;;;7.20;;
5555;SDS011;2801;50.972;7.856;2022-10-04T00:42:51;17.40;;;7.40;;
5555;SDS011;2801;50.972;7.856;2022-10-04T00:45:26;13.77;;;6.97;;
5555;SDS011;2801;50.972;7.856;2022-10-04T00:48:02;11.83;;;6.90;;
5555;SDS011;2801;50.972;7.856;2022-10-04T00:50:53;20.23;;;8.17;;
5555;SDS011;2801;50.972;7.856;2022-10-04T00:53:44;15.53;;;7.77;;
5555;SDS011;2801;50.972;7.856;2022-10-04T00:59:30;13.13;;;7.67;;
5555;SDS011;2801;50.972;7.856;2022-10-04T01:05:15;16.73;;;7.97;;
5555;SDS011;2801;50.972;7.856;2022-10-04T01:08:32;22.93;;;7.03;;
5555;SDS011;2801;50.972;7.856;2022-10-04T01:11:04;25.93;;;8.40;;
5555;SDS011;2801;50.972;7.856;2022-10-04T01:13:37;14.67;;;7.20;;
5555;SDS011;2801;50.972;7.856;2022-10-04T01:16:17;12.23;;;6.80;;
5555;SDS011;2801;50.972;7.856;2022-10-04T01:18:51;23.70;;;7.07;;
5555;SDS011;2801;50.972;7.856;2022-10-04T01:23:49;23.43;;;6.73;;
5555;SDS011;2801;50.972;7.856;2022-10-04T01:31:52;17.53;;;7.17;;
5555;SDS011;2801;50.972;7.856;2022-10-04T01:34:23;18.73;;;7.23;;
5555;SDS011;2801;50.972;7.856;2022-10-04T01:36:56;12.43;;;6.60;;
5555;SDS011;2801;50.972;7.856;2022-10-04T01:39:25;17.20;;;7.27;;
5555;SDS011;2801;50.972;7.856;2022-10-04T01:42:04;16.87;;;7.30;;
5555;SDS011;2801;50.972;7.856;2022-10-04T01:45:29;17.40;;;6.63;;
5555;SDS011;2801;50.972;7.856;2022-10-04T01:48:24;28.13;;;7.03;;
5555;SDS011;2801;50.972;7.856;2022-10-04T01:51:02;24.27;;;7.33;;
5555;SDS011;2801;50.972;7.856;2022-10-04T01:53:46;19.40;;;7.03;;
5555;SDS011;2801;50.972;7.856;2022-10-04T01:56:26;16.00;;;6.60;;
5555;SDS011;2801;50.972;7.856;2022-10-04T01:59:06;16.50;;;6.90;;
5555;SDS011;2801;50.972;7.856;2022-10-04T02:01:49;13.40;;;6.87;;
5555;SDS011;2801;50.972;7.856;2022-10-04T02:04:31;11.53;;;6.67;;
5555;SDS011;2801;50.972;7.856;2022-10-04T02:07:09;12.70;;;6.83;;
5555;SDS011;2801;50.972;7.856;2022-10-04T02:09:41;13.53;;;6.90;;
5555;SDS011;2801;50.972;7.856;2022-10-04T02:12:13;15.70;;;6.47;;
5555;SDS011;2801;50.972;7.856;2022-10-04T02:14:49;20.10;;;6.80;;
5555;SDS011;2801;50.972;7.856;2022-10-04T02:17:20;20.63;;;6.67;;
5555;SDS011;2801;50.972;7.856;2022-10-04T02:19:52;24.20;;;6.67;;
5555;SDS011;2801;50.972;7.856;2022-10-04T02:22:20;24.73;;;7.10;;
5555;SDS011;2801;50.972;7.856;2022-10-04T02:24:51;26.43;;;6.97;;
5555;SDS011;2801;50.972;7.856;2022-10-04T02:27:25;15.17;;;6.53;;
5555;SDS011;2801;50.972;7.856;2022-10-04T02:30:01;33.97;;;6.97;;
5555;SDS011;2801;50.972;7.856;2022-10-04T02:32:35;25.17;;;7.07;;
5555;SDS011;2801;50.972;7.856;2022-10-04T02:35:24;20.77;;;6.70;;
5555;SDS011;2801;50.972;7.856;2022-10-04T02:37:57;20.83;;;6.23;;
5555;SDS011;2801;50.972;7.856;2022-10-04T02:40:58;32.10;;;6.53;;
5555;SDS011;2801;50.972;7.856;2022-10-04T02:46:44;13.70;;;6.23;;
5555;SDS011;2801;50.972;7.856;2022-10-04T02:49:47;10.17;;;5.90;;
5555;SDS011;2801;50.972;7.856;2022-10-04T02:55:05;10.97;;;5.80;;
5555;SDS011;2801;50.972;7.856;2022-10-04T02:57:45;10.10;;;5.83;;
5555;SDS011;2801;50.972;7.856;2022-10-04T03:00:16;15.03;;;6.50;;
5555;SDS011;2801;50.972;7.856;2022-10-04T03:06:05;12.47;;;6.23;;
5555;SDS011;2801;50.972;7.856;2022-10-04T03:08:43;10.77;;;6.07;;
5555;SDS011;2801;50.972;7.856;2022-10-04T03:11:18;9.83;;;5.90;;
5555;SDS011;2801;50.972;7.856;2022-10-04T03:13:51;8.53;;;5.93;;
5555;SDS011;2801;50.972;7.856;2022-10-04T03:16:21;8.97;;;5.53;;
5555;SDS011;2801;50.972;7.856;2022-10-04T03:18:50;17.57;;;5.80;;
5555;SDS011;2801;50.972;7.856;2022-10-04T03:21:22;9.60;;;6.27;;
5555;SDS011;2801;50.972;7.856;2022-10-04T03:23:51;8.70;;;5.90;;
5555;SDS011;2801;50.972;7.856;2022-10-04T03:26:30;11.23;;;6.87;;
5555;SDS011;2801;50.972;7.856;2022-10-04T03:29:07;10.57;;;6.10;;
5555;SDS011;2801;50.972;7.856;2022-10-04T03:31:39;10.93;;;6.77;;
5555;SDS011;2801;50.972;7.856;2022-10-04T03:34:15;11.80;;;7.20;;
5555;SDS011;2801;50.972;7.856;2022-10-04T03:36:49;10.97;;;6.87;;
5555;SDS011;2801;50.972;7.856;2022-10-04T03:42:12;11.83;;;6.13;;
5555;SDS011;2801;50.972;7.856;2022-10-04T03:44:44;9.20;;;5.87;;
5555;SDS011;2801;50.972;7.856;2022-10-04T03:47:21;8.73;;;5.80;;
5555;SDS011;2801;50.972;7.856;2022-10-04T03:49:54;9.73;;;5.97;;
5555;SDS011;2801;50.972;7.856;2022-10-04T03:52:26;10.17;;;6.57;;
5555;SDS011;2801;50.972;7.856;2022-10-04T03:55:03;10.67;;;6.17;;
5555;SDS011;2801;50.972;7.856;2022-10-04T03:57:33;8.80;;;6.20;;
5555;SDS011;2801;50.972;7.856;2022-10-04T04:00:03;9.70;;;6.73;;
5555;SDS011;2801;50.972;7.856;2022-10-04T04:02:36;9.53;;;6.40;;
5555;SDS011;2801;50.972;7.856;2022-10-04T04:05:31;10.07;;;6.07;;
5555;SDS011;2801;50.972;7.856;2022-10-04T04:08:13;9.90;;;6.03;;
5555;SDS011;2801;50.972;7.856;2022-10-04T04:10:54;8.57;;;5.63;;
5555;SDS011;2801;50.972;7.856;2022-10-04T04:16:18;9.70;;;5.50;;
5555;SDS011;2801;50.972;7.856;2022-10-04T04:18:51;10.70;;;6.80;;
5555;SDS011;2801;50.972;7.856;2022-10-04T04:21:23;12.50;;;6.40;;
5555;SDS011;2801;50.972;7.856;2022-10-04T04:23:54;10.00;;;6.77;;
5555;SDS011;2801;50.972;7.856;2022-10-04T04:26:32;10.37;;;6.67;;
5555;SDS011;2801;50.972;7.856;2022-10-04T04:31:53;13.63;;;7.90;;
5555;SDS011;2801;50.972;7.856;2022-10-04T04:34:26;12.77;;;7.73;;
5555;SDS011;2801;50.972;7.856;2022-10-04T04:37:09;12.33;;;7.80;;
5555;SDS011;2801;50.972;7.856;2022-10-04T04:39:36;10.03;;;6.33;;
5555;SDS011;2801;50.972;7.856;2022-10-04T04:47:41;10.30;;;6.13;;
5555;SDS011;2801;50.972;7.856;2022-10-04T04:50:19;8.43;;;5.90;;
5555;SDS011;2801;50.972;7.856;2022-10-04T04:53:09;8.27;;;5.73;;
5555;SDS011;2801;50.972;7.856;2022-10-04T04:55:47;12.53;;;6.83;;
5555;SDS011;2801;50.972;7.856;2022-10-04T04:58:31;9.17;;;6.33;;
5555;SDS011;2801;50.972;7.856;2022-10-04T05:01:04;12.17;;;6.93;;
5555;SDS011;2801;50.972;7.856;2022-10-04T05:03:58;11.90;;;7.03;;
5555;SDS011;2801;50.972;7.856;2022-10-04T05:06:43;14.17;;;7.77;;
5555;SDS011;2801;50.972;7.856;2022-10-04T05:09:24;11.57;;;7.33;;
5555;SDS011;2801;50.972;7.856;2022-10-04T05:12:01;12.23;;;7.13;;
5555;SDS011;2801;50.972;7.856;2022-10-04T05:14:38;11.00;;;6.40;;
5555;SDS011;2801;50.972;7.856;2022-10-04T05:17:16;12.43;;;7.20;;
5555;SDS011;2801;50.972;7.856;2022-10-04T05:19:48;10.93;;;6.47;;
5555;SDS011;2801;50.972;7.856;2022-10-04T05:22:19;8.87;;;6.17;;
5555;SDS011;2801;50.972;7.856;2022-10-04T05:24:53;10.43;;;5.67;;
5555;SDS011;2801;50.972;7.856;2022-10-04T05:27:29;13.87;;;6.90;;
5555;SDS011;2801;50.972;7.856;2022-10-04T05:33:09;10.73;;;6.70;;
5555;SDS011;2801;50.972;7.856;2022-10-04T05:35:51;12.40;;;8.07;;
5555;SDS011;2801;50.972;7.856;2022-10-04T05:38:55;14.27;;;7.87;;
5555;SDS011;2801;50.972;7.856;2022-10-04T05:41:32;14.67;;;7.77;;
5555;SDS011;2801;50.972;7.856;2022-10-04T05:46:56;11.63;;;6.30;;
5555;SDS011;2801;50.972;7.856;2022-10-04T05:49:32;13.00;;;7.00;;
5555;SDS011;2801;50.972;7.856;2022-10-04T05:52:15;11.73;;;6.53;;
5555;SDS011;2801;50.972;7.856;2022-10-04T06:04:39;14.13;;;7.50;;
5555;SDS011;2801;50.972;7.856;2022-10-04T06:10:50;13.53;;;7.10;;
5555;SDS011;2801;50.972;7.856;2022-10-04T06:16:54;12.40;;;7.97;;
5555;SDS011;2801;50.972;7.856;2022-10-04T06:19:48;13.40;;;7.13;;
5555;SDS011;2801;50.972;7.856;2022-10-04T06:22:26;14.70;;;8.57;;
5555;SDS011;2801;50.972;7.856;2022-10-04T06:24:55;15.40;;;8.67;;
5555;SDS011;2801;50.972;7.856;2022-10-04T06:27:36;13.90;;;8.10;;
5555;SDS011;2801;50.972;7.856;2022-10-04T06:30:20;12.60;;;9.10;;
5555;SDS011;2801;50.972;7.856;2022-10-04T06:51:06;17.67;;;10.47;;
5555;SDS011;2801;50.972;7.856;2022-10-04T06:54:11;21.43;;;11.20;;
5555;SDS011;2801;50.972;7.856;2022-10-04T07:00:22;18.10;;;9.87;;
5555;SDS011;2801;50.972;7.856;2022-10-04T07:02:52;19.93;;;11.37;;
5555;SDS011;2801;50.972;7.856;2022-10-04T07:05:47;17.43;;;10.93;;
5555;SDS011;2801;50.972;7.856;2022-10-04T07:08:46;25.20;;;11.10;;
5555;SDS011;2801;50.972;7.856;2022-10-04T07:11:17;17.87;;;11.10;;
5555;SDS011;2801;50.972;7.856;2022-10-04T07:27:18;12.95;;;7.63;;
5555;SDS011;2801;50.972;7.856;2022-10-04T07:30:16;11.95;;;8.00;;
5555;SDS011;2801;50.972;7.856;2022-10-04T07:32:46;11.70;;;7.45;;
5555;SDS011;2801;50.972;7.856;2022-10-04T07:38:12;14.25;;;6.88;;
5555;SDS011;2801;50.972;7.856;2022-10-04T07:44:02;11.45;;;7.55;;
5555;SDS011;2801;50.972;7.856;2022-10-04T07:49:14;12.68;;;7.50;;
5555;SDS011;2801;50.972;7.856;2022-10-04T07:52:01;12.23;;;7.30;;
5555;SDS011;2801;50.972;7.856;2022-10-04T08:03:35;10.90;;;6.80;;
5555;SDS011;2801;50.972;7.856;2022-10-04T08:06:35;9.93;;;7.00;;
5555;SDS011;2801;50.972;7.856;2022-10-04T08:12:16;14.82;;;6.93;;
5555;SDS011;2801;50.972;7.856;2022-10-04T08:29:32;11.65;;;6.85;;
5555;SDS011;2801;50.972;7.856;2022-10-04T08:35:38;12.10;;;5.65;;
5555;SDS011;2801;50.972;7.856;2022-10-04T08:38:53;10.63;;;4.55;;
5555;SDS011;2801;50.972;7.856;2022-10-04T08:41:30;9.27;;;4.25;;
5555;SDS011;2801;50.972;7.856;2022-10-04T08:44:46;9.02;;;4.05;;
5555;SDS011;2801;50.972;7.856;2022-10-04T08:56:49;9.77;;;4.57;;
5555;SDS011;2801;50.972;7.856;2022-10-04T09:00:02;10.02;;;4.10;;
5555;SDS011;2801;50.972;7.856;2022-10-04T09:03:35;7.43;;;4.10;;
5555;SDS011;2801;50.972;7.856;2022-10-04T09:11:55;9.60;;;4.38;;
5555;SDS011;2801;50.972;7.856;2022-10-04T09:18:36;8.15;;;4.25;;
5555;SDS011;2801;50.972;7.856;2022-10-04T09:20:46;7.82;;;4.35;;
5555;SDS011;2801;50.972;7.856;2022-10-04T09:29:33;8.68;;;4.15;;
5555;SDS011;2801;50.972;7.856;2022-10-04T09:38:08;8.85;;;4.65;;
5555;SDS011;2801;50.972;7.856;2022-10-04T09:40:51;9.80;;;4.15;;
5555;SDS011;2801;50.972;7.856;2022-10-04T09:46:42;9.23;;;3.70;;
5555;SDS011;2801;50.972;7.856;2022-10-04T10:03:32;8.05;;;3.63;;
5555;SDS011;2801;50.972;7.856;2022-10-04T10:06:47;7.53;;;3.83;;
5555;SDS011;2801;50.972;7.856;2022-10-04T10:09:48;7.80;;;3.50;;
5555;SDS011;2801;50.972;7.856;2022-10-04T10:13:18;5.63;;;3.22;;
5555;SDS011;2801;50.972;7.856;2022-10-04T10:16:17;7.63;;;3.20;;
5555;SDS011;2801;50.972;7.856;2022-10-04T10:19:32;7.65;;;3.15;;
5555;SDS011;2801;50.972;7.856;2022-10-04T10:28:41;11.02;;;3.53;;
5555;SDS011;2801;50.972;7.856;2022-10-04T10:40:37;5.22;;;2.90;;
5555;SDS011;2801;50.972;7.856;2022-10-04T10:46:26;4.97;;;2.60;;
5555;SDS011;2801;50.972;7.856;2022-10-04T10:49:28;6.72;;;2.97;;
5555;SDS011;2801;50.972;7.856;2022-10-04T10:55:28;6.22;;;2.55;;
5555;SDS011;2801;50.972;7.856;2022-10-04T11:05:35;5.57;;;3.10;;
5555;SDS011;2801;50.972;7.856;2022-10-04T11:11:43;6.78;;;2.50;;
5555;SDS011;2801;50.972;7.856;2022-10-04T11:17:24;5.28;;;2.75;;
5555;SDS011;2801;50.972;7.856;2022-10-04T11:27:18;3.53;;;1.83;;
5555;SDS011;2801;50.972;7.856;2022-10-04T11:29:45;3.72;;;1.92;;
5555;SDS011;2801;50.972;7.856;2022-10-04T11:39:17;4.18;;;2.35;;
5555;SDS011;2801;50.972;7.856;2022-10-04T11:42:17;3.25;;;2.10;;
5555;SDS011;2801;50.972;7.856;2022-10-04T11:57:53;3.67;;;2.10;;
5555;SDS011;2801;50.972;7.856;2022-10-04T12:09:09;3.88;;;2.08;;
5555;SDS011;2801;50.972;7.856;2022-10-04T12:15:09;4.75;;;1.95;;
5555;SDS011;2801;50.972;7.856;2022-10-04T12:27:00;3.22;;;2.00;;
5555;SDS011;2801;50.972;7.856;2022-10-04T12:35:34;4.60;;;2.10;;
5555;SDS011;2801;50.972;7.856;2022-10-04T12:38:19;4.18;;;2.05;;
5555;SDS011;2801;50.972;7.856;2022-10-04T12:40:55;4.68;;;1.80;;
5555;SDS011;2801;50.972;7.856;2022-10-04T12:46:50;2.53;;;1.67;;
5555;SDS011;2801;50.972;7.856;2022-10-04T12:49:55;4.57;;;1.92;;
5555;SDS011;2801;50.972;7.856;2022-10-04T12:55:48;3.00;;;1.85;;
5555;SDS011;2801;50.972;7.856;2022-10-04T13:04:26;2.63;;;1.88;;
5555;SDS011;2801;50.972;7.856;2022-10-04T13:13:04;3.17;;;1.60;;
5555;SDS011;2801;50.972;7.856;2022-10-04T13:15:49;2.58;;;1.70;;
5555;SDS011;2801;50.972;7.856;2022-10-04T13:22:58;3.53;;;1.70;;
5555;SDS011;2801;50.972;7.856;2022-10-04T13:28:33;3.55;;;1.75;;
5555;SDS011;2801;50.972;7.856;2022-10-04T13:31:45;2.78;;;1.63;;
5555;SDS011;2801;50.972;7.856;2022-10-04T13:40:41;3.05;;;1.92;;
5555;SDS011;2801;50.972;7.856;2022-10-04T13:46:41;2.53;;;1.70;;
5555;SDS011;2801;50.972;7.856;2022-10-04T13:52:50;5.63;;;1.95;;
5555;SDS011;2801;50.972;7.856;2022-10-04T14:14:21;3.85;;;1.77;;
5555;SDS011;2801;50.972;7.856;2022-10-04T14:35:55;2.53;;;1.85;;
5555;SDS011;2801;50.972;7.856;2022-10-04T14:47:25;3.75;;;1.90;;
5555;SDS011;2801;50.972;7.856;2022-10-04T14:50:29;1.95;;;1.70;;
5555;SDS011;2801;50.972;7.856;2022-10-04T14:53:33;2.95;;;1.90;;
5555;SDS011;2801;50.972;7.856;2022-10-04T14:56:44;3.13;;;1.90;;
5555;SDS011;2801;50.972;7.856;2022-10-04T15:02:32;2.30;;;1.80;;
5555;SDS011;2801;50.972;7.856;2022-10-04T15:11:04;3.22;;;2.10;;
5555;SDS011;2801;50.972;7.856;2022-10-04T15:13:52;5.20;;;2.15;;
5555;SDS011;2801;50.972;7.856;2022-10-04T15:16:32;3.05;;;1.70;;
5555;SDS011;2801;50.972;7.856;2022-10-04T15:26:59;3.90;;;2.13;;
5555;SDS011;2801;50.972;7.856;2022-10-04T15:33:12;3.50;;;2.10;;
5555;SDS011;2801;50.972;7.856;2022-10-04T15:36:28;3.17;;;2.10;;
5555;SDS011;2801;50.972;7.856;2022-10-04T15:39:07;5.13;;;2.17;;
5555;SDS011;2801;50.972;7.856;2022-10-04T15:42:23;3.22;;;2.08;;
5555;SDS011;2801;50.972;7.856;2022-10-04T15:45:28;5.80;;;2.45;;
5555;SDS011;2801;50.972;7.856;2022-10-04T15:48:33;3.90;;;2.03;;
5555;SDS011;2801;50.972;7.856;2022-10-04T16:00:38;4.40;;;2.60;;
5555;SDS011;2801;50.972;7.856;2022-10-04T16:06:42;5.13;;;2.08;;
5555;SDS011;2801;50.972;7.856;2022-10-04T16:14:58;4.45;;;2.58;;
5555;SDS011;2801;50.972;7.856;2022-10-04T16:17:36;4.25;;;2.53;;
5555;SDS011;2801;50.972;7.856;2022-10-04T16:21:01;15.60;;;4.38;;
5555;SDS011;2801;50.972;7.856;2022-10-04T16:23:38;4.20;;;2.50;;
5555;SDS011;2801;50.972;7.856;2022-10-04T16:26:10;3.72;;;2.47;;
5555;SDS011;2801;50.972;7.856;2022-10-04T16:32:58;3.55;;;2.15;;
5555;SDS011;2801;50.972;7.856;2022-10-04T16:36:08;5.28;;;2.53;;
5555;SDS011;2801;50.972;7.856;2022-10-04T16:38:44;4.57;;;2.40;;
5555;SDS011;2801;50.972;7.856;2022-10-04T16:41:34;11.90;;;3.63;;
5555;SDS011;2801;50.972;7.856;2022-10-04T16:47:16;5.55;;;2.90;;
5555;SDS011;2801;50.972;7.856;2022-10-04T16:49:55;5.03;;;3.00;;
5555;SDS011;2801;50.972;7.856;2022-10-04T16:55:29;5.50;;;3.53;;
5555;SDS011;2801;50.972;7.856;2022-10-04T17:09:29;5.32;;;2.55;;
5555;SDS011;2801;50.972;7.856;2022-10-04T17:18:11;5.47;;;3.40;;
5555;SDS011;2801;50.972;7.856;2022-10-04T17:26:50;8.13;;;5.60;;
5555;SDS011;2801;50.972;7.856;2022-10-04T17:33:12;6.82;;;4.78;;
5555;SDS011;2801;50.972;7.856;2022-10-04T17:44:21;7.70;;;5.60;;
5555;SDS011;2801;50.972;7.856;2022-10-04T17:47:18;10.95;;;4.68;;
5555;SDS011;2801;50.972;7.856;2022-10-04T17:49:58;8.93;;;4.90;;
5555;SDS011;2801;50.972;7.856;2022-10-04T17:53:02;9.73;;;5.70;;
5555;SDS011;2801;50.972;7.856;2022-10-04T17:55:58;12.75;;;6.35;;
5555;SDS011;2801;50.972;7.856;2022-10-04T18:01:25;10.95;;;5.45;;
5555;SDS011;2801;50.972;7.856;2022-10-04T18:04:07;11.10;;;6.60;;
5555;SDS011;2801;50.972;7.856;2022-10-04T18:06:57;10.68;;;7.25;;
5555;SDS011;2801;50.972;7.856;2022-10-04T18:09:41;16.00;;;9.23;;
5555;SDS011;2801;50.972;7.856;2022-10-04T18:15:25;18.45;;;9.68;;
5555;SDS011;2801;50.972;7.856;2022-10-04T18:18:23;14.60;;;8.07;;
5555;SDS011;2801;50.972;7.856;2022-10-04T18:23:27;16.55;;;9.35;;
5555;SDS011;2801;50.972;7.856;2022-10-04T18:28:43;16.35;;;10.65;;
5555;SDS011;2801;50.972;7.856;2022-10-04T18:31:28;14.73;;;10.23;;
5555;SDS011;2801;50.972;7.856;2022-10-04T18:36:45;22.02;;;15.82;;
5555;SDS011;2801;50.972;7.856;2022-10-04T18:39:28;11.05;;;6.47;;
5555;SDS011;2801;50.972;7.856;2022-10-04T18:44:42;8.38;;;6.07;;
5555;SDS011;2801;50.972;7.856;2022-10-04T18:47:37;8.80;;;6.13;;
5555;SDS011;2801;50.972;7.856;2022-10-04T18:50:22;17.80;;;9.98;;
5555;SDS011;2801;50.972;7.856;2022-10-04T18:53:11;14.90;;;9.32;;
5555;SDS011;2801;50.972;7.856;2022-10-04T18:56:11;11.27;;;6.47;;
5555;SDS011;2801;50.972;7.856;2022-10-04T19:02:11;18.52;;;11.55;;
5555;SDS011;2801;50.972;7.856;2022-10-04T19:05:11;16.58;;;10.35;;
5555;SDS011;2801;50.972;7.856;2022-10-04T19:08:10;9.38;;;6.05;;
5555;SDS011;2801;50.972;7.856;2022-10-04T19:16:59;14.38;;;7.28;;
5555;SDS011;2801;50.972;7.856;2022-10-04T19:23:39;14.07;;;9.30;;
5555;SDS011;2801;50.972;7.856;2022-10-04T19:26:42;15.02;;;8.82;;
5555;SDS011;2801;50.972;7.856;2022-10-04T19:35:45;8.23;;;5.70;;
5555;SDS011;2801;50.972;7.856;2022-10-04T19:41:46;12.25;;;6.22;;
5555;SDS011;2801;50.972;7.856;2022-10-04T19:44:41;14.02;;;8.65;;
5555;SDS011;2801;50.972;7.856;2022-10-04T19:50:26;13.05;;;7.38;;
5555;SDS011;2801;50.972;7.856;2022-10-04T19:55:55;14.25;;;8.60;;
5555;SDS011;2801;50.972;7.856;2022-10-04T19:58:46;13.90;;;9.77;;
5555;SDS011;2801;50.972;7.856;2022-10-04T20:01:26;18.83;;;8.95;;
5555;SDS011;2801;50.972;7.856;2022-10-04T20:03:54;16.35;;;7.20;;
5555;SDS011;2801;50.972;7.856;2022-10-04T20:06:55;17.33;;;9.98;;
5555;SDS011;2801;50.972;7.856;2022-10-04T20:12:03;15.02;;;8.57;;
5555;SDS011;2801;50.972;7.856;2022-10-04T20:35:02;10.75;;;6.53;;
5555;SDS011;2801;50.972;7.856;2022-10-04T20:40:53;14.57;;;7.32;;
5555;SDS011;2801;50.972;7.856;2022-10-04T20:43:23;12.07;;;7.47;;
5555;SDS011;2801;50.972;7.856;2022-10-04T20:45:51;15.90;;;6.97;;
5555;SDS011;2801;50.972;7.856;2022-10-04T20:48:24;9.73;;;6.70;;
5555;SDS011;2801;50.972;7.856;2022-10-04T20:50:56;11.40;;;7.05;;
5555;SDS011;2801;50.972;7.856;2022-10-04T20:53:34;10.95;;;7.28;;
5555;SDS011;2801;50.972;7.856;2022-10-04T20:58:36;13.15;;;7.03;;
5555;SDS011;2801;50.972;7.856;2022-10-04T21:01:18;16.52;;;9.00;;
5555;SDS011;2801;50.972;7.856;2022-10-04T21:04:21;14.48;;;8.32;;
5555;SDS011;2801;50.972;7.856;2022-10-04T21:07:02;12.57;;;7.90;;
5555;SDS011;2801;50.972;7.856;2022-10-04T21:09:32;11.63;;;7.35;;
5555;SDS011;2801;50.972;7.856;2022-10-04T21:12:01;13.73;;;8.67;;
5555;SDS011;2801;50.972;7.856;2022-10-04T21:14:31;13.65;;;8.02;;
5555;SDS011;2801;50.972;7.856;2022-10-04T21:17:03;13.15;;;8.32;;
5555;SDS011;2801;50.972;7.856;2022-10-04T21:19:53;16.25;;;8.20;;
5555;SDS011;2801;50.972;7.856;2022-10-04T21:24:59;13.18;;;7.20;;
5555;SDS011;2801;50.972;7.856;2022-10-04T21:27:50;15.52;;;8.20;;
5555;SDS011;2801;50.972;7.856;2022-10-04T21:30:18;17.73;;;9.35;;
5555;SDS011;2801;50.972;7.856;2022-10-04T21:32:45;17.27;;;10.23;;
5555;SDS011;2801;50.972;7.856;2022-10-04T21:35:12;15.00;;;8.88;;
5555;SDS011;2801;50.972;7.856;2022-10-04T21:37:39;17.75;;;8.98;;
5555;SDS011;2801;50.972;7.856;2022-10-04T21:40:05;12.17;;;7.90;;
5555;SDS011;2801;50.972;7.856;2022-10-04T21:42:33;14.98;;;7.90;;
5555;SDS011;2801;50.972;7.856;2022-10-04T21:45:00;13.63;;;7.47;;
5555;SDS011;2801;50.972;7.856;2022-10-04T21:47:27;15.57;;;8.50;;
5555;SDS011;2801;50.972;7.856;2022-10-04T21:49:53;15.30;;;8.88;;
5555;SDS011;2801;50.972;7.856;2022-10-04T21:52:20;14.02;;;8.80;;
5555;SDS011;2801;50.972;7.856;2022-10-04T21:54:47;13.83;;;8.57;;
5555;SDS011;2801;50.972;7.856;2022-10-04T21:57:14;11.70;;;7.30;;
5555;SDS011;2801;50.972;7.856;2022-10-04T21:59:41;9.97;;;6.63;;
5555;SDS011;2801;50.972;7.856;2022-10-04T22:02:07;13.63;;;7.40;;
5555;SDS011;2801;50.972;7.856;2022-10-04T22:04:34;16.67;;;8.30;;
5555;SDS011;2801;50.972;7.856;2022-10-04T22:07:03;14.02;;;7.40;;
5555;SDS011;2801;50.972;7.856;2022-10-04T22:09:29;14.33;;;8.00;;
5555;SDS011;2801;50.972;7.856;2022-10-04T22:11:58;12.80;;;7.77;;
5555;SDS011;2801;50.972;7.856;2022-10-04T22:14:24;14.37;;;8.03;;
5555;SDS011;2801;50.972;7.856;2022-10-04T22:16:51;14.50;;;7.43;;
5555;SDS011;2801;50.972;7.856;2022-10-04T22:19:18;12.87;;;7.60;;
5555;SDS011;2801;50.972;7.856;2022-10-04T22:21:45;14.27;;;8.23;;
5555;SDS011;2801;50.972;7.856;2022-10-04T22:24:15;13.37;;;7.53;;
5555;SDS011;2801;50.972;7.856;2022-10-04T22:26:45;14.07;;;8.10;;
5555;SDS011;2801;50.972;7.856;2022-10-04T22:29:13;12.00;;;7.90;;
5555;SDS011;2801;50.972;7.856;2022-10-04T22:31:52;18.63;;;7.90;;
5555;SDS011;2801;50.972;7.856;2022-10-04T22:34:20;15.97;;;7.80;;
5555;SDS011;2801;50.972;7.856;2022-10-04T22:36:48;13.00;;;7.50;;
5555;SDS011;2801;50.972;7.856;2022-10-04T22:39:17;16.70;;;8.50;;
5555;SDS011;2801;50.972;7.856;2022-10-04T22:41:46;15.53;;;7.67;;
5555;SDS011;2801;50.972;7.856;2022-10-04T22:44:20;16.23;;;8.10;;
5555;SDS011;2801;50.972;7.856;2022-10-04T22:46:59;13.97;;;7.50;;
5555;SDS011;2801;50.972;7.856;2022-10-04T22:49:31;15.93;;;7.77;;
5555;SDS011;2801;50.972;7.856;2022-10-04T22:52:13;14.37;;;7.50;;
5555;SDS011;2801;50.972;7.856;2022-10-04T22:54:46;13.23;;;7.80;;
5555;SDS011;2801;50.972;7.856;2022-10-04T22:57:22;17.80;;;8.47;;
5555;SDS011;2801;50.972;7.856;2022-10-04T22:59:50;17.70;;;9.40;;
5555;SDS011;2801;50.972;7.856;2022-10-04T23:02:22;14.33;;;8.60;;
5555;SDS011;2801;50.972;7.856;2022-10-04T23:04:53;16.30;;;8.17;;
5555;SDS011;2801;50.972;7.856;2022-10-04T23:07:24;14.40;;;8.37;;
5555;SDS011;2801;50.972;7.856;2022-10-04T23:09:51;17.27;;;7.93;;
5555;SDS011;2801;50.972;7.856;2022-10-04T23:12:18;19.50;;;8.53;;
5555;SDS011;2801;50.972;7.856;2022-10-04T23:14:45;17.60;;;8.73;;
5555;SDS011;2801;50.972;7.856;2022-10-04T23:17:16;15.43;;;7.87;;
5555;SDS011;2801;50.972;7.856;2022-10-04T23:19:56;14.60;;;7.80;;
5555;SDS011;2801;50.972;7.856;2022-10-04T23:22:31;13.90;;;7.30;;
5555;SDS011;2801;50.972;7.856;2022-10-04T23:24:59;17.43;;;7.93;;
5555;SDS011;2801;50.972;7.856;2022-10-04T23:27:26;12.27;;;7.50;;
5555;SDS011;2801;50.972;7.856;2022-10-04T23:30:00;12.53;;;7.57;;
5555;SDS011;2801;50.972;7.856;2022-10-04T23:32:29;14.83;;;7.67;;
5555;SDS011;2801;50.972;7.856;2022-10-04T23:34:57;13.63;;;7.30;;
5555;SDS011;2801;50.972;7.856;2022-10-04T23:37:29;13.50;;;6.80;;
5555;SDS011;2801;50.972;7.856;2022-10-04T23:39:57;14.87;;;8.00;;
5555;SDS011;2801;50.972;7.856;2022-10-04T23:42:25;12.93;;;7.13;;
5555;SDS011;2801;50.972;7.856;2022-10-04T23:44:55;15.37;;;7.60;;
5555;SDS011;2801;50.972;7.856;2022-10-04T23:47:34;12.80;;;7.07;;
5555;SDS011;2801;50.972;7.856;2022-10-04T23:50:06;13.87;;;7.27;;
5555;SDS011;2801;50.972;7.856;2022-10-04T23:53:03;12.17;;;6.63;;
5555;SDS011;2801;50.972;7.856;2022-10-04T23:55:37;11.80;;;6.67;;
5555;SDS011;2801;50.972;7.856;2022-10-04T23:58:13;14.20;;;7.23;;
